createdAt,value
2023-05-11T00:01:19.739Z,48.91
2023-05-11T00:03:47.931Z,49.01
2023-05-11T00:06:15.784Z,48.94
2023-05-11T00:08:43.558Z,49.07
2023-05-11T00:11:11.376Z,49.06
2023-05-11T00:13:39.222Z,49.01
2023-05-11T00:16:06.987Z,49.08
2023-05-11T00:18:34.797Z,49.17
2023-05-11T00:21:02.818Z,49.13
2023-05-11T00:23:30.767Z,49.26
2023-05-11T00:25:58.497Z,49.32
2023-05-11T00:28:26.388Z,49.37
2023-05-11T00:30:58.667Z,49.28
2023-05-11T00:33:26.835Z,49.38
2023-05-11T00:35:54.775Z,49.50
2023-05-11T00:38:22.678Z,49.54
2023-05-11T00:40:51.140Z,49.54
2023-05-11T00:43:19.031Z,49.62
2023-05-11T00:45:48.197Z,49.53
2023-05-11T00:48:16.428Z,49.74
2023-05-11T00:50:44.733Z,49.73
2023-05-11T00:53:13.279Z,49.86
2023-05-11T00:55:41.387Z,49.79
2023-05-11T00:58:09.295Z,49.93
2023-05-11T01:00:37.126Z,49.83
2023-05-11T01:03:05.449Z,49.96
2023-05-11T01:06:08.269Z,49.93
2023-05-11T01:09:07.883Z,49.98
2023-05-11T01:12:00.514Z,50.06
2023-05-11T01:14:49.276Z,50.10
2023-05-11T01:17:28.366Z,50.19
2023-05-11T01:20:07.416Z,50.17
2023-05-11T01:23:08.627Z,50.20
2023-05-11T01:25:49.636Z,50.32
2023-05-11T01:28:23.175Z,50.25
2023-05-11T01:30:57.810Z,50.30
2023-05-11T01:33:35.254Z,50.22
2023-05-11T01:36:11.096Z,50.38
2023-05-11T01:38:44.304Z,50.52
2023-05-11T01:41:18.166Z,50.55
2023-05-11T01:43:55.953Z,50.48
2023-05-11T01:46:27.304Z,50.49
2023-05-11T01:48:57.735Z,50.72
2023-05-11T01:51:32.708Z,50.76
2023-05-11T01:54:02.242Z,50.67
2023-05-11T01:56:31.189Z,50.78
2023-05-11T01:59:00.205Z,50.77
2023-05-11T02:01:35.805Z,50.78
2023-05-11T02:04:05.909Z,50.86
2023-05-11T02:06:35.558Z,50.98
2023-05-11T02:09:04.693Z,51.06
2023-05-11T02:11:35.883Z,51.05
2023-05-11T02:14:05.654Z,51.12
2023-05-11T02:16:35.156Z,51.12
2023-05-11T02:19:07.854Z,51.20
2023-05-11T02:21:38.061Z,51.32
2023-05-11T02:24:08.353Z,51.32
2023-05-11T02:26:37.040Z,51.49
2023-05-11T02:29:04.995Z,51.49
2023-05-11T02:31:42.623Z,51.45
2023-05-11T02:34:24.984Z,51.51
2023-05-11T02:37:02.470Z,51.43
2023-05-11T02:39:36.647Z,51.46
2023-05-11T02:42:18.277Z,51.58
2023-05-11T02:45:02.626Z,51.49
2023-05-11T02:47:39.809Z,51.43
2023-05-11T02:50:09.985Z,51.61
2023-05-11T02:52:49.512Z,51.61
2023-05-11T02:55:20.934Z,51.67
2023-05-11T02:57:49.277Z,51.79
2023-05-11T03:00:18.015Z,51.79
2023-05-11T03:02:47.704Z,51.86
2023-05-11T03:05:18.213Z,51.93
2023-05-11T03:07:47.517Z,51.84
2023-05-11T03:10:15.383Z,51.62
2023-05-11T03:12:46.311Z,51.83
2023-05-11T03:15:16.259Z,51.75
2023-05-11T03:17:47.507Z,51.72
2023-05-11T03:20:19.379Z,51.81
2023-05-11T03:22:48.406Z,51.77
2023-05-11T03:25:17.262Z,51.86
2023-05-11T03:27:47.195Z,51.92
2023-05-11T03:30:19.827Z,51.90
2023-05-11T03:32:52.402Z,51.99
2023-05-11T03:35:25.820Z,52.07
2023-05-11T03:37:56.926Z,52.15
2023-05-11T03:40:30.071Z,52.21
2023-05-11T03:43:00.129Z,52.16
2023-05-11T03:45:31.428Z,52.22
2023-05-11T03:48:00.432Z,52.35
2023-05-11T03:50:28.801Z,52.23
2023-05-11T03:52:57.325Z,52.34
2023-05-11T03:55:26.911Z,52.30
2023-05-11T03:57:54.703Z,52.34
2023-05-11T04:00:22.636Z,52.36
2023-05-11T04:02:53.013Z,52.57
2023-05-11T04:05:20.847Z,52.53
2023-05-11T04:07:50.502Z,52.69
2023-05-11T04:10:19.813Z,52.66
2023-05-11T04:12:47.843Z,52.79
2023-05-11T04:15:16.382Z,52.88
2023-05-11T04:17:44.165Z,52.78
2023-05-11T04:20:12.735Z,52.76
2023-05-11T04:22:40.756Z,52.90
2023-05-11T04:25:09.157Z,52.85
2023-05-11T04:27:37.560Z,52.85
2023-05-11T04:30:07.170Z,52.93
2023-05-11T04:32:37.193Z,52.97
2023-05-11T04:35:05.421Z,53.00
2023-05-11T04:37:36.332Z,53.12
2023-05-11T04:40:07.393Z,53.17
2023-05-11T04:42:46.443Z,53.11
2023-05-11T04:45:17.751Z,53.02
2023-05-11T04:47:45.826Z,52.95
2023-05-11T04:50:14.120Z,53.17
2023-05-11T04:52:41.933Z,53.18
2023-05-11T04:55:10.004Z,53.14
2023-05-11T04:57:39.000Z,53.21
2023-05-11T05:00:11.097Z,53.24
2023-05-11T05:02:41.138Z,53.23
2023-05-11T05:05:09.570Z,53.32
2023-05-11T05:07:37.644Z,53.45
2023-05-11T05:10:08.913Z,53.35
2023-05-11T05:12:37.184Z,53.52
2023-05-11T05:15:06.331Z,53.48
2023-05-11T05:17:34.378Z,53.64
2023-05-11T05:20:02.325Z,53.57
2023-05-11T05:22:30.469Z,53.71
2023-05-11T05:24:58.494Z,53.67
2023-05-11T05:27:26.326Z,53.60
2023-05-11T05:29:57.503Z,53.67
2023-05-11T05:32:26.746Z,53.67
2023-05-11T05:34:55.102Z,53.67
2023-05-11T05:37:23.444Z,53.60
2023-05-11T05:39:51.124Z,53.71
2023-05-11T05:42:19.095Z,53.69
2023-05-11T05:44:46.910Z,53.60
2023-05-11T05:47:16.175Z,53.63
2023-05-11T05:49:45.929Z,53.53
2023-05-11T05:52:13.778Z,53.53
2023-05-11T05:54:42.361Z,53.58
2023-05-11T05:57:10.079Z,53.55
2023-05-11T05:59:37.842Z,53.62
2023-05-11T06:02:08.686Z,53.58
2023-05-11T06:04:37.850Z,53.64
2023-05-11T06:07:05.621Z,53.61
2023-05-11T06:09:36.202Z,53.49
2023-05-11T06:12:06.072Z,53.52
2023-05-11T06:14:36.669Z,53.52
2023-05-11T06:17:04.519Z,53.50
2023-05-11T06:19:32.261Z,53.37
2023-05-11T06:22:00.148Z,53.30
2023-05-11T06:24:29.789Z,53.28
2023-05-11T06:26:58.681Z,53.12
2023-05-11T06:29:26.992Z,53.20
2023-05-11T06:31:56.076Z,53.15
2023-05-11T06:34:24.599Z,53.21
2023-05-11T06:36:52.362Z,53.09
2023-05-11T06:39:20.083Z,52.92
2023-05-11T06:41:47.875Z,52.94
2023-05-11T06:44:15.680Z,52.93
2023-05-11T06:46:45.779Z,52.82
2023-05-11T06:49:13.587Z,52.83
2023-05-11T06:51:42.005Z,52.75
2023-05-11T06:54:09.880Z,52.71
2023-05-11T06:56:37.853Z,52.71
2023-05-11T06:59:05.610Z,52.46
2023-05-11T07:01:33.348Z,52.51
2023-05-11T07:04:01.896Z,52.54
2023-05-11T07:06:29.799Z,52.52
2023-05-11T07:08:57.540Z,52.35
2023-05-11T07:11:27.803Z,52.48
2023-05-11T07:13:57.425Z,52.44
2023-05-11T07:16:25.220Z,52.41
2023-05-11T07:18:52.988Z,52.20
2023-05-11T07:21:22.275Z,52.20
2023-05-11T07:23:50.052Z,52.08
2023-05-11T07:26:19.905Z,51.80
2023-05-11T07:28:47.610Z,51.73
2023-05-11T07:31:15.451Z,51.85
2023-05-11T07:33:43.306Z,51.59
2023-05-11T07:36:12.590Z,51.51
2023-05-11T07:38:40.483Z,51.61
2023-05-11T07:41:10.096Z,51.45
2023-05-11T07:43:40.520Z,51.42
2023-05-11T07:46:08.257Z,51.27
2023-05-11T07:48:36.578Z,51.12
2023-05-11T07:51:04.595Z,51.01
2023-05-11T07:53:33.085Z,50.92
2023-05-11T07:56:00.959Z,50.97
2023-05-11T07:58:28.671Z,50.79
2023-05-11T08:00:57.400Z,50.77
2023-05-11T08:03:25.513Z,50.87
2023-05-11T08:05:53.509Z,50.73
2023-05-11T08:08:21.269Z,50.76
2023-05-11T08:10:49.131Z,50.62
2023-05-11T08:13:17.291Z,50.52
2023-05-11T08:15:45.877Z,50.27
2023-05-11T08:18:13.902Z,50.16
2023-05-11T08:20:43.742Z,50.04
2023-05-11T08:23:17.154Z,50.05
2023-05-11T08:25:55.524Z,49.68
2023-05-11T08:28:23.390Z,49.74
2023-05-11T08:30:56.554Z,49.78
2023-05-11T08:35:55.435Z,49.80
2023-05-11T08:38:23.148Z,49.85
2023-05-11T08:40:54.537Z,49.50
2023-05-11T08:43:22.568Z,49.79
2023-05-11T08:45:53.379Z,49.76
2023-05-11T08:48:22.768Z,49.65
2023-05-11T08:50:53.624Z,49.64
2023-05-11T08:53:22.360Z,49.49
2023-05-11T08:55:51.563Z,49.29
2023-05-11T08:58:22.345Z,49.13
2023-05-11T09:00:51.116Z,49.11
2023-05-11T09:03:23.600Z,48.98
2023-05-11T09:05:52.204Z,49.05
2023-05-11T09:08:24.173Z,48.68
2023-05-11T09:10:52.335Z,48.96
2023-05-11T09:13:20.261Z,48.71
2023-05-11T09:15:47.987Z,48.67
2023-05-11T09:18:16.000Z,48.57
2023-05-11T09:20:44.525Z,48.42
2023-05-11T09:23:17.484Z,48.03
2023-05-11T09:25:45.519Z,48.25
2023-05-11T09:28:15.786Z,47.82
2023-05-11T09:30:44.361Z,47.86
2023-05-11T09:33:12.195Z,47.80
2023-05-11T09:35:40.272Z,47.98
2023-05-11T09:38:11.285Z,47.52
2023-05-11T09:40:53.384Z,47.47
2023-05-11T09:43:30.751Z,47.11
2023-05-11T09:46:08.722Z,47.28
2023-05-11T09:48:36.583Z,47.24
2023-05-11T09:51:06.771Z,47.18
2023-05-11T09:53:38.845Z,47.05
2023-05-11T09:56:07.089Z,46.67
2023-05-11T09:58:57.366Z,46.76
2023-05-11T10:01:34.272Z,46.73
2023-05-11T10:04:21.223Z,46.65
2023-05-11T10:06:54.086Z,46.66
2023-05-11T10:09:29.289Z,46.77
2023-05-11T10:11:57.289Z,46.74
2023-05-11T10:14:26.832Z,46.64
2023-05-11T10:16:57.612Z,46.80
2023-05-11T10:19:25.692Z,46.87
2023-05-11T10:21:55.351Z,46.72
2023-05-11T10:24:23.155Z,46.80
2023-05-11T10:26:51.921Z,46.76
2023-05-11T10:29:20.138Z,46.61
2023-05-11T10:31:51.092Z,46.67
2023-05-11T10:34:23.237Z,46.59
2023-05-11T10:36:53.189Z,46.44
2023-05-11T10:39:21.575Z,46.39
2023-05-11T10:42:39.318Z,46.22
2023-05-11T10:46:08.743Z,46.31
2023-05-11T10:49:22.205Z,46.45
2023-05-11T10:52:21.594Z,45.90
2023-05-11T10:54:58.134Z,45.88
2023-05-11T10:57:51.503Z,45.71
2023-05-11T11:00:43.805Z,45.49
2023-05-11T11:03:13.570Z,45.46
2023-05-11T11:05:43.800Z,45.61
2023-05-11T11:08:13.772Z,45.42
2023-05-11T11:10:46.775Z,45.19
2023-05-11T11:13:16.862Z,45.08
2023-05-11T11:15:55.909Z,44.59
2023-05-11T11:18:29.889Z,44.51
2023-05-11T11:20:59.098Z,44.61
2023-05-11T11:23:50.250Z,44.24
2023-05-11T11:26:50.438Z,44.41
2023-05-11T11:29:18.359Z,44.40
2023-05-11T11:31:46.222Z,44.11
2023-05-11T11:34:29.448Z,43.87
2023-05-11T11:37:08.342Z,43.83
2023-05-11T11:39:42.061Z,43.29
2023-05-11T11:42:15.688Z,43.39
2023-05-11T11:44:44.811Z,43.30
2023-05-11T11:47:20.131Z,43.05
2023-05-11T11:49:54.635Z,42.92
2023-05-11T11:52:31.088Z,42.91
2023-05-11T11:55:01.099Z,43.09
2023-05-11T11:57:35.097Z,42.76
2023-05-11T12:00:10.585Z,42.84
2023-05-11T12:02:45.863Z,42.45
2023-05-11T12:05:19.861Z,42.38
2023-05-11T12:07:51.568Z,42.26
2023-05-11T12:10:22.477Z,42.31
2023-05-11T12:12:54.938Z,42.03
2023-05-11T12:15:30.080Z,41.72
2023-05-11T12:17:58.243Z,41.60
2023-05-11T12:20:26.212Z,41.19
2023-05-11T12:22:54.157Z,41.27
2023-05-11T12:25:22.338Z,41.15
2023-05-11T12:27:58.128Z,41.07
2023-05-11T12:30:29.269Z,40.80
2023-05-11T12:32:59.252Z,41.02
2023-05-11T12:35:30.115Z,40.87
2023-05-11T12:38:04.989Z,40.76
2023-05-11T12:40:32.967Z,40.62
2023-05-11T12:43:01.035Z,40.48
2023-05-11T12:45:29.590Z,40.25
2023-05-11T12:47:58.391Z,40.35
2023-05-11T12:50:26.345Z,40.26
2023-05-11T12:52:54.357Z,40.09
2023-05-11T12:55:30.640Z,39.85
2023-05-11T12:58:16.128Z,39.85
2023-05-11T13:00:59.703Z,39.96
2023-05-11T13:03:34.103Z,39.51
2023-05-11T13:06:12.420Z,39.54
2023-05-11T13:08:49.927Z,39.56
2023-05-11T13:11:26.718Z,39.76
2023-05-11T13:13:57.219Z,39.94
2023-05-11T13:16:32.659Z,39.94
2023-05-11T13:19:02.765Z,39.58
2023-05-11T13:21:33.173Z,39.66
2023-05-11T13:24:03.997Z,39.50
2023-05-11T13:26:32.790Z,39.53
2023-05-11T13:29:09.533Z,39.49
2023-05-11T13:31:50.294Z,39.06
2023-05-11T13:34:22.120Z,39.17
2023-05-11T13:36:51.840Z,38.97
2023-05-11T13:39:20.547Z,39.14
2023-05-11T13:41:48.397Z,38.89
2023-05-11T13:44:16.108Z,38.90
2023-05-11T13:46:44.009Z,38.62
2023-05-11T13:49:12.094Z,38.42
2023-05-11T13:51:39.853Z,38.40
2023-05-11T13:54:07.968Z,38.23
2023-05-11T13:56:35.760Z,38.07
2023-05-11T13:59:03.526Z,37.75
2023-05-11T14:01:31.345Z,37.90
2023-05-11T14:03:59.439Z,37.67
2023-05-11T14:06:27.328Z,37.56
2023-05-11T14:08:58.401Z,38.38
2023-05-11T14:11:26.167Z,38.07
2023-05-11T14:13:53.941Z,38.01
2023-05-11T14:16:22.118Z,37.84
2023-05-11T14:18:51.843Z,37.47
2023-05-11T14:21:19.664Z,37.72
2023-05-11T14:24:02.078Z,37.82
2023-05-11T14:26:35.018Z,37.60
2023-05-11T14:29:02.929Z,37.86
2023-05-11T14:31:31.382Z,37.63
2023-05-11T14:33:59.204Z,37.39
2023-05-11T14:36:27.803Z,37.66
2023-05-11T14:38:55.902Z,37.94
2023-05-11T14:41:23.882Z,37.66
2023-05-11T14:43:52.110Z,37.85
2023-05-11T14:46:20.278Z,38.00
2023-05-11T14:48:48.380Z,37.54
2023-05-11T14:51:16.182Z,37.67
2023-05-11T14:53:43.951Z,37.35
2023-05-11T14:56:11.917Z,37.70
2023-05-11T14:58:39.777Z,37.81
2023-05-11T15:01:08.226Z,38.01
2023-05-11T15:03:38.029Z,37.82
2023-05-11T15:06:06.291Z,37.71
2023-05-11T15:08:34.008Z,37.75
2023-05-11T15:11:01.681Z,37.54
2023-05-11T15:13:29.483Z,37.07
2023-05-11T15:15:57.763Z,37.17
2023-05-11T15:18:25.607Z,37.03
2023-05-11T15:20:53.511Z,37.05
2023-05-11T15:23:21.337Z,37.04
2023-05-11T15:25:49.281Z,36.91
2023-05-11T15:28:16.994Z,37.14
2023-05-11T15:30:44.812Z,36.93
2023-05-11T15:33:12.678Z,36.89
2023-05-11T15:35:41.607Z,36.98
2023-05-11T15:38:09.472Z,37.36
2023-05-11T15:40:37.266Z,37.26
2023-05-11T15:43:04.977Z,37.38
2023-05-11T15:45:32.816Z,37.11
2023-05-11T15:48:01.484Z,37.10
2023-05-11T15:50:29.581Z,36.90
2023-05-11T15:52:57.336Z,37.00
2023-05-11T15:55:26.210Z,36.97
2023-05-11T15:57:53.962Z,37.02
2023-05-11T16:00:21.850Z,37.26
2023-05-11T16:02:50.083Z,37.26
2023-05-11T16:05:18.528Z,37.39
2023-05-11T16:07:48.156Z,37.24
2023-05-11T16:10:15.977Z,37.50
2023-05-11T16:12:43.763Z,37.13
2023-05-11T16:15:11.966Z,37.28
2023-05-11T16:17:40.036Z,37.49
2023-05-11T16:20:08.738Z,37.38
2023-05-11T16:22:37.212Z,37.42
2023-05-11T16:25:06.648Z,37.13
2023-05-11T16:27:34.330Z,37.24
2023-05-11T16:30:18.027Z,37.45
2023-05-11T16:32:51.597Z,37.68
2023-05-11T16:35:19.463Z,37.86
2023-05-11T16:37:47.897Z,37.80
2023-05-11T16:40:21.421Z,37.87
2023-05-11T16:42:51.060Z,37.98
2023-05-11T16:45:19.132Z,38.17
2023-05-11T16:47:47.364Z,38.11
2023-05-11T16:50:18.690Z,37.95
2023-05-11T16:52:46.744Z,37.91
2023-05-11T16:55:16.054Z,37.88
2023-05-11T16:57:44.553Z,37.85
2023-05-11T17:00:13.608Z,37.87
2023-05-11T17:02:41.749Z,37.99
2023-05-11T17:05:11.762Z,37.59
2023-05-11T17:07:39.522Z,37.67
2023-05-11T17:10:11.837Z,37.47
2023-05-11T17:12:40.212Z,37.46
2023-05-11T17:15:11.832Z,37.37
2023-05-11T17:17:39.785Z,37.31
2023-05-11T17:20:08.576Z,37.38
2023-05-11T17:22:37.378Z,37.43
2023-05-11T17:25:07.749Z,37.41
2023-05-11T17:27:38.207Z,37.54
2023-05-11T17:30:07.515Z,37.67
2023-05-11T17:32:35.600Z,37.74
2023-05-11T17:35:04.300Z,37.86
2023-05-11T17:37:32.623Z,37.89
2023-05-11T17:40:01.509Z,38.05
2023-05-11T17:42:29.593Z,38.25
2023-05-11T17:44:57.573Z,38.33
2023-05-11T17:47:26.023Z,38.76
2023-05-11T17:49:55.822Z,38.96
2023-05-11T17:52:25.154Z,39.26
2023-05-11T17:54:53.238Z,39.63
2023-05-11T17:57:23.337Z,40.02
2023-05-11T17:59:51.382Z,40.04
2023-05-11T18:02:19.307Z,40.41
2023-05-11T18:04:47.223Z,40.77
2023-05-11T18:07:15.036Z,40.88
2023-05-11T18:09:43.117Z,41.36
2023-05-11T18:12:11.761Z,41.64
2023-05-11T18:14:40.063Z,41.55
2023-05-11T18:17:07.953Z,41.68
2023-05-11T18:19:35.931Z,42.22
2023-05-11T18:22:04.321Z,42.08
2023-05-11T18:24:32.051Z,42.13
2023-05-11T18:27:01.184Z,42.37
2023-05-11T18:29:28.897Z,42.62
2023-05-11T18:31:56.771Z,42.77
2023-05-11T18:34:24.543Z,42.66
2023-05-11T18:36:53.620Z,43.10
2023-05-11T18:39:21.931Z,43.35
2023-05-11T18:41:49.682Z,43.67
2023-05-11T18:44:18.963Z,43.68
2023-05-11T18:46:46.784Z,43.80
2023-05-11T18:49:14.563Z,43.93
2023-05-11T18:51:46.699Z,43.88
2023-05-11T18:54:14.704Z,44.12
2023-05-11T18:56:42.706Z,43.96
2023-05-11T18:59:10.910Z,44.51
2023-05-11T19:01:47.525Z,44.46
2023-05-11T19:04:19.805Z,44.52
2023-05-11T19:06:47.979Z,44.35
2023-05-11T19:09:16.021Z,44.65
2023-05-11T19:11:44.275Z,44.88
2023-05-11T19:14:14.616Z,44.93
2023-05-11T19:16:42.607Z,45.13
2023-05-11T19:19:10.975Z,45.28
2023-05-11T19:21:43.354Z,45.49
2023-05-11T19:24:11.899Z,45.20
2023-05-11T19:26:39.814Z,45.37
2023-05-11T19:29:13.417Z,45.49
2023-05-11T19:31:41.246Z,45.46
2023-05-11T19:34:09.334Z,45.69
2023-05-11T19:36:37.083Z,45.73
2023-05-11T19:39:04.848Z,45.98
2023-05-11T19:41:33.240Z,46.46
2023-05-11T19:44:02.710Z,46.39
2023-05-11T19:46:30.615Z,46.62
2023-05-11T19:49:00.319Z,46.68
2023-05-11T19:51:28.058Z,47.18
2023-05-11T19:53:57.146Z,47.39
2023-05-11T19:56:24.898Z,47.38
2023-05-11T19:58:52.584Z,47.55
2023-05-11T20:01:20.333Z,47.92
2023-05-11T20:03:48.333Z,48.13
2023-05-11T20:06:16.747Z,48.08
2023-05-11T20:08:46.400Z,48.07
2023-05-11T20:11:15.703Z,48.02
2023-05-11T20:13:44.544Z,48.06
2023-05-11T20:16:12.708Z,48.36
2023-05-11T20:18:40.546Z,48.29
2023-05-11T20:21:08.304Z,48.38
2023-05-11T20:23:37.572Z,48.65
2023-05-11T20:26:05.510Z,48.68
2023-05-11T20:28:33.244Z,48.79
2023-05-11T20:31:01.063Z,49.06
2023-05-11T20:36:00.138Z,49.43
2023-05-11T20:38:28.007Z,49.57
2023-05-11T20:40:59.052Z,49.70
2023-05-11T20:43:27.195Z,49.65
2023-05-11T20:45:55.379Z,49.81
2023-05-11T20:48:32.385Z,49.97
2023-05-11T20:51:03.957Z,50.07
2023-05-11T20:53:31.792Z,50.12
2023-05-11T20:56:01.873Z,50.27
2023-05-11T20:58:31.692Z,50.47
2023-05-11T21:00:59.653Z,50.77
2023-05-11T21:03:27.870Z,50.58
2023-05-11T21:05:56.545Z,50.88
2023-05-11T21:08:24.324Z,50.95
2023-05-11T21:10:53.077Z,50.90
2023-05-11T21:13:20.897Z,50.79
2023-05-11T21:15:48.683Z,50.90
2023-05-11T21:18:16.490Z,51.09
2023-05-11T21:20:44.219Z,50.89
2023-05-11T21:23:12.014Z,50.99
2023-05-11T21:25:40.472Z,51.30
2023-05-11T21:28:08.510Z,51.31
2023-05-11T21:30:36.542Z,51.29
2023-05-11T21:33:04.353Z,51.63
2023-05-11T21:35:32.078Z,51.61
2023-05-11T21:37:59.797Z,51.46
2023-05-11T21:40:27.514Z,51.63
2023-05-11T21:42:55.316Z,51.80
2023-05-11T21:45:23.528Z,51.66
2023-05-11T21:47:52.225Z,51.77
2023-05-11T21:50:20.287Z,51.82
2023-05-11T21:52:48.268Z,51.98
2023-05-11T21:55:16.059Z,52.21
2023-05-11T21:57:43.764Z,51.90
2023-05-11T22:00:18.321Z,51.94
2023-05-11T22:02:46.723Z,52.03
2023-05-11T22:05:14.955Z,51.94
2023-05-11T22:07:43.896Z,51.92
2023-05-11T22:10:12.232Z,52.27
2023-05-11T22:12:40.038Z,52.07
2023-05-11T22:15:08.873Z,52.17
2023-05-11T22:17:37.212Z,52.18
2023-05-11T22:20:06.552Z,52.30
2023-05-11T22:22:35.241Z,52.22
2023-05-11T22:25:03.872Z,52.12
2023-05-11T22:27:32.097Z,52.33
2023-05-11T22:29:59.908Z,52.53
2023-05-11T22:32:27.966Z,52.44
2023-05-11T22:34:59.979Z,52.23
2023-05-11T22:37:28.683Z,52.27
2023-05-11T22:39:56.567Z,52.44
2023-05-11T22:42:24.316Z,52.41
2023-05-11T22:44:52.340Z,52.17
2023-05-11T22:47:20.168Z,52.20
2023-05-11T22:49:47.950Z,52.23
2023-05-11T22:52:16.556Z,52.25
2023-05-11T22:54:44.367Z,52.29
2023-05-11T22:57:14.819Z,52.47
2023-05-11T22:59:42.564Z,52.48
2023-05-11T23:02:10.328Z,52.57
2023-05-11T23:04:38.479Z,52.50
2023-05-11T23:07:07.844Z,52.49
2023-05-11T23:09:35.688Z,52.55
2023-05-11T23:12:03.698Z,52.68
2023-05-11T23:14:31.548Z,52.51
2023-05-11T23:16:59.342Z,52.58
2023-05-11T23:19:27.225Z,52.71
2023-05-11T23:21:55.030Z,52.66
2023-05-11T23:24:22.735Z,52.62
2023-05-11T23:26:50.697Z,52.77
2023-05-11T23:29:18.486Z,52.79
2023-05-11T23:31:46.573Z,52.72
2023-05-11T23:34:14.774Z,52.89
2023-05-11T23:36:42.495Z,53.03
2023-05-11T23:39:10.299Z,53.01
2023-05-11T23:41:38.523Z,52.95
2023-05-11T23:44:06.538Z,53.06
2023-05-11T23:46:34.459Z,53.12
2023-05-11T23:49:02.239Z,53.09
2023-05-11T23:51:29.960Z,53.17
2023-05-11T23:53:57.745Z,53.40
2023-05-11T23:56:25.567Z,53.38
2023-05-11T23:58:53.385Z,53.51
